Terminal Aerodrome Forecast
Issued by NWS Wilmington, OH

Current Version | Previous Version | Graphics & Text | Print | Product List | Glossary On
Versions: 1 2 3 4 5 6 7 8 9 10 11 12 13 14 15 16 17 18
000
FTUS41 KILN 141740
TAFDAY
TAF
KDAY 141740Z 1418/1518 16007KT P6SM SCT060
     FM150100 VRB03KT P6SM FEW100
     FM151400 26005KT P6SM FEW030=

USA.gov is the U.S. government's official web portal to all federal, state and local government web resources and services.